sensor_id;sensor_type;location;lat;lon;timestamp;P1;durP1;ratioP1;P2;durP2;ratioP2
84444;SDS011;74683;48.402;10.596;2024-01-10T00:01:03;13.55;;;6.43;;
84444;SDS011;74683;48.402;10.596;2024-01-10T00:03:30;20.30;;;6.05;;
84444;SDS011;74683;48.402;10.596;2024-01-10T00:05:56;17.63;;;6.40;;
84444;SDS011;74683;48.402;10.596;2024-01-10T00:08:23;19.25;;;6.88;;
84444;SDS011;74683;48.402;10.596;2024-01-10T00:10:53;18.33;;;6.38;;
84444;SDS011;74683;48.402;10.596;2024-01-10T00:13:21;13.25;;;5.88;;
84444;SDS011;74683;48.402;10.596;2024-01-10T00:15:50;12.88;;;7.20;;
84444;SDS011;74683;48.402;10.596;2024-01-10T00:18:17;12.02;;;6.43;;
84444;SDS011;74683;48.402;10.596;2024-01-10T00:20:43;16.85;;;5.72;;
84444;SDS011;74683;48.402;10.596;2024-01-10T00:23:10;15.45;;;6.18;;
84444;SDS011;74683;48.402;10.596;2024-01-10T00:25:37;20.73;;;8.40;;
84444;SDS011;74683;48.402;10.596;2024-01-10T00:28:03;16.98;;;7.25;;
84444;SDS011;74683;48.402;10.596;2024-01-10T00:30:30;15.02;;;6.05;;
84444;SDS011;74683;48.402;10.596;2024-01-10T00:32:57;15.98;;;6.50;;
84444;SDS011;74683;48.402;10.596;2024-01-10T00:35:24;17.65;;;7.20;;
84444;SDS011;74683;48.402;10.596;2024-01-10T00:37:51;15.82;;;7.63;;
84444;SDS011;74683;48.402;10.596;2024-01-10T00:40:18;25.45;;;9.85;;
84444;SDS011;74683;48.402;10.596;2024-01-10T00:42:44;29.17;;;10.27;;
84444;SDS011;74683;48.402;10.596;2024-01-10T00:45:11;22.10;;;8.10;;
84444;SDS011;74683;48.402;10.596;2024-01-10T00:47:37;20.17;;;9.43;;
84444;SDS011;74683;48.402;10.596;2024-01-10T00:50:05;22.85;;;9.77;;
84444;SDS011;74683;48.402;10.596;2024-01-10T00:52:32;15.18;;;7.53;;
84444;SDS011;74683;48.402;10.596;2024-01-10T00:54:58;19.52;;;8.45;;
84444;SDS011;74683;48.402;10.596;2024-01-10T00:57:25;16.20;;;8.20;;
84444;SDS011;74683;48.402;10.596;2024-01-10T00:59:52;18.05;;;7.57;;
84444;SDS011;74683;48.402;10.596;2024-01-10T01:02:18;22.00;;;9.10;;
84444;SDS011;74683;48.402;10.596;2024-01-10T01:04:45;22.85;;;8.38;;
84444;SDS011;74683;48.402;10.596;2024-01-10T01:07:12;18.40;;;6.75;;
84444;SDS011;74683;48.402;10.596;2024-01-10T01:09:38;14.82;;;7.38;;
84444;SDS011;74683;48.402;10.596;2024-01-10T01:12:05;17.10;;;8.13;;
84444;SDS011;74683;48.402;10.596;2024-01-10T01:14:32;19.45;;;8.65;;
84444;SDS011;74683;48.402;10.596;2024-01-10T01:16:59;24.13;;;11.07;;
84444;SDS011;74683;48.402;10.596;2024-01-10T01:19:25;25.45;;;10.43;;
84444;SDS011;74683;48.402;10.596;2024-01-10T01:21:52;24.65;;;9.18;;
84444;SDS011;74683;48.402;10.596;2024-01-10T01:24:19;15.05;;;7.25;;
84444;SDS011;74683;48.402;10.596;2024-01-10T01:26:45;20.17;;;8.35;;
84444;SDS011;74683;48.402;10.596;2024-01-10T01:29:12;18.08;;;7.82;;
84444;SDS011;74683;48.402;10.596;2024-01-10T01:31:39;16.30;;;6.97;;
84444;SDS011;74683;48.402;10.596;2024-01-10T01:34:05;23.80;;;8.07;;
84444;SDS011;74683;48.402;10.596;2024-01-10T01:36:32;21.05;;;8.43;;
84444;SDS011;74683;48.402;10.596;2024-01-10T01:38:59;27.85;;;8.77;;
84444;SDS011;74683;48.402;10.596;2024-01-10T01:41:26;18.75;;;8.10;;
84444;SDS011;74683;48.402;10.596;2024-01-10T01:43:52;17.00;;;7.03;;
84444;SDS011;74683;48.402;10.596;2024-01-10T01:46:19;16.95;;;6.90;;
84444;SDS011;74683;48.402;10.596;2024-01-10T01:48:46;23.70;;;7.70;;
84444;SDS011;74683;48.402;10.596;2024-01-10T01:51:13;26.95;;;7.45;;
84444;SDS011;74683;48.402;10.596;2024-01-10T01:53:41;14.55;;;6.78;;
84444;SDS011;74683;48.402;10.596;2024-01-10T01:56:10;17.40;;;6.40;;
84444;SDS011;74683;48.402;10.596;2024-01-10T01:58:41;18.88;;;6.88;;
84444;SDS011;74683;48.402;10.596;2024-01-10T02:01:09;19.15;;;8.43;;
84444;SDS011;74683;48.402;10.596;2024-01-10T02:03:38;15.48;;;6.57;;
84444;SDS011;74683;48.402;10.596;2024-01-10T02:06:04;24.10;;;8.25;;
84444;SDS011;74683;48.402;10.596;2024-01-10T02:08:35;18.45;;;8.13;;
84444;SDS011;74683;48.402;10.596;2024-01-10T02:11:02;19.20;;;7.28;;
84444;SDS011;74683;48.402;10.596;2024-01-10T02:13:30;30.67;;;8.45;;
84444;SDS011;74683;48.402;10.596;2024-01-10T02:15:59;17.17;;;6.57;;
84444;SDS011;74683;48.402;10.596;2024-01-10T02:18:26;19.42;;;7.60;;
84444;SDS011;74683;48.402;10.596;2024-01-10T02:20:52;17.45;;;7.05;;
84444;SDS011;74683;48.402;10.596;2024-01-10T02:23:19;14.15;;;5.88;;
84444;SDS011;74683;48.402;10.596;2024-01-10T02:25:46;14.13;;;6.90;;
84444;SDS011;74683;48.402;10.596;2024-01-10T02:28:13;27.05;;;9.57;;
84444;SDS011;74683;48.402;10.596;2024-01-10T02:30:39;17.70;;;7.43;;
84444;SDS011;74683;48.402;10.596;2024-01-10T02:33:06;17.92;;;7.13;;
84444;SDS011;74683;48.402;10.596;2024-01-10T02:35:33;19.70;;;7.35;;
84444;SDS011;74683;48.402;10.596;2024-01-10T02:37:59;14.77;;;7.32;;
84444;SDS011;74683;48.402;10.596;2024-01-10T02:40:26;15.60;;;6.88;;
84444;SDS011;74683;48.402;10.596;2024-01-10T02:42:53;19.90;;;8.00;;
84444;SDS011;74683;48.402;10.596;2024-01-10T02:45:20;21.98;;;8.65;;
84444;SDS011;74683;48.402;10.596;2024-01-10T02:47:46;19.83;;;10.07;;
84444;SDS011;74683;48.402;10.596;2024-01-10T02:50:13;24.65;;;9.55;;
84444;SDS011;74683;48.402;10.596;2024-01-10T02:52:40;31.23;;;10.80;;
84444;SDS011;74683;48.402;10.596;2024-01-10T02:55:07;22.20;;;7.90;;
84444;SDS011;74683;48.402;10.596;2024-01-10T02:57:33;18.45;;;7.35;;
84444;SDS011;74683;48.402;10.596;2024-01-10T03:00:00;20.15;;;6.95;;
84444;SDS011;74683;48.402;10.596;2024-01-10T03:02:27;18.77;;;8.68;;
84444;SDS011;74683;48.402;10.596;2024-01-10T03:04:54;18.67;;;7.07;;
84444;SDS011;74683;48.402;10.596;2024-01-10T03:07:20;18.20;;;8.73;;
84444;SDS011;74683;48.402;10.596;2024-01-10T03:09:47;28.60;;;8.05;;
84444;SDS011;74683;48.402;10.596;2024-01-10T03:12:14;23.17;;;10.40;;
84444;SDS011;74683;48.402;10.596;2024-01-10T03:14:41;30.65;;;8.55;;
84444;SDS011;74683;48.402;10.596;2024-01-10T03:17:08;19.55;;;8.10;;
84444;SDS011;74683;48.402;10.596;2024-01-10T03:19:34;25.27;;;10.15;;
84444;SDS011;74683;48.402;10.596;2024-01-10T03:22:03;21.92;;;8.93;;
84444;SDS011;74683;48.402;10.596;2024-01-10T03:24:30;20.95;;;8.73;;
84444;SDS011;74683;48.402;10.596;2024-01-10T03:26:56;18.67;;;8.05;;
84444;SDS011;74683;48.402;10.596;2024-01-10T03:29:23;25.73;;;9.48;;
84444;SDS011;74683;48.402;10.596;2024-01-10T03:31:50;25.63;;;8.32;;
84444;SDS011;74683;48.402;10.596;2024-01-10T03:34:16;28.08;;;8.77;;
84444;SDS011;74683;48.402;10.596;2024-01-10T03:36:44;20.50;;;8.90;;
84444;SDS011;74683;48.402;10.596;2024-01-10T03:39:11;22.88;;;7.38;;
84444;SDS011;74683;48.402;10.596;2024-01-10T03:41:38;29.05;;;10.38;;
84444;SDS011;74683;48.402;10.596;2024-01-10T03:44:04;26.10;;;9.85;;
84444;SDS011;74683;48.402;10.596;2024-01-10T03:46:32;25.65;;;9.80;;
84444;SDS011;74683;48.402;10.596;2024-01-10T03:48:58;27.83;;;9.18;;
84444;SDS011;74683;48.402;10.596;2024-01-10T03:51:25;20.17;;;10.15;;
84444;SDS011;74683;48.402;10.596;2024-01-10T03:53:52;30.60;;;11.18;;
84444;SDS011;74683;48.402;10.596;2024-01-10T03:56:21;22.73;;;9.60;;
84444;SDS011;74683;48.402;10.596;2024-01-10T03:58:48;24.10;;;10.13;;
84444;SDS011;74683;48.402;10.596;2024-01-10T04:01:15;40.08;;;11.70;;
84444;SDS011;74683;48.402;10.596;2024-01-10T04:03:41;17.67;;;8.93;;
84444;SDS011;74683;48.402;10.596;2024-01-10T04:06:08;20.08;;;9.82;;
84444;SDS011;74683;48.402;10.596;2024-01-10T04:08:35;21.30;;;9.00;;
84444;SDS011;74683;48.402;10.596;2024-01-10T04:11:02;24.05;;;8.88;;
84444;SDS011;74683;48.402;10.596;2024-01-10T04:13:29;25.27;;;9.38;;
84444;SDS011;74683;48.402;10.596;2024-01-10T04:15:56;27.48;;;10.82;;
84444;SDS011;74683;48.402;10.596;2024-01-10T04:18:23;19.10;;;10.07;;
84444;SDS011;74683;48.402;10.596;2024-01-10T04:20:50;26.13;;;9.75;;
84444;SDS011;74683;48.402;10.596;2024-01-10T04:23:16;27.95;;;11.10;;
84444;SDS011;74683;48.402;10.596;2024-01-10T04:25:43;27.52;;;9.77;;
84444;SDS011;74683;48.402;10.596;2024-01-10T04:28:10;30.23;;;11.23;;
84444;SDS011;74683;48.402;10.596;2024-01-10T04:30:37;23.40;;;10.48;;
84444;SDS011;74683;48.402;10.596;2024-01-10T04:33:03;28.80;;;12.45;;
84444;SDS011;74683;48.402;10.596;2024-01-10T04:35:31;35.72;;;11.40;;
84444;SDS011;74683;48.402;10.596;2024-01-10T04:37:57;29.40;;;10.05;;
84444;SDS011;74683;48.402;10.596;2024-01-10T04:40:24;34.22;;;13.05;;
84444;SDS011;74683;48.402;10.596;2024-01-10T04:42:51;33.45;;;13.50;;
84444;SDS011;74683;48.402;10.596;2024-01-10T04:45:18;51.05;;;17.65;;
84444;SDS011;74683;48.402;10.596;2024-01-10T04:47:45;34.78;;;14.02;;
84444;SDS011;74683;48.402;10.596;2024-01-10T04:50:12;49.83;;;16.88;;
84444;SDS011;74683;48.402;10.596;2024-01-10T04:52:40;29.83;;;13.85;;
84444;SDS011;74683;48.402;10.596;2024-01-10T04:55:06;28.35;;;12.30;;
84444;SDS011;74683;48.402;10.596;2024-01-10T04:57:35;35.38;;;13.35;;
84444;SDS011;74683;48.402;10.596;2024-01-10T05:00:02;32.35;;;14.35;;
84444;SDS011;74683;48.402;10.596;2024-01-10T05:02:29;18.60;;;8.85;;
84444;SDS011;74683;48.402;10.596;2024-01-10T05:04:56;23.80;;;11.52;;
84444;SDS011;74683;48.402;10.596;2024-01-10T05:07:23;22.23;;;10.50;;
84444;SDS011;74683;48.402;10.596;2024-01-10T05:09:49;25.92;;;9.13;;
84444;SDS011;74683;48.402;10.596;2024-01-10T05:12:16;25.45;;;11.43;;
84444;SDS011;74683;48.402;10.596;2024-01-10T05:14:43;25.65;;;11.50;;
84444;SDS011;74683;48.402;10.596;2024-01-10T05:17:09;27.05;;;10.45;;
84444;SDS011;74683;48.402;10.596;2024-01-10T05:19:36;25.05;;;9.95;;
84444;SDS011;74683;48.402;10.596;2024-01-10T05:22:03;24.52;;;10.50;;
84444;SDS011;74683;48.402;10.596;2024-01-10T05:24:30;22.20;;;10.18;;
84444;SDS011;74683;48.402;10.596;2024-01-10T05:26:57;30.48;;;11.32;;
84444;SDS011;74683;48.402;10.596;2024-01-10T05:29:24;27.40;;;10.70;;
84444;SDS011;74683;48.402;10.596;2024-01-10T05:31:51;29.73;;;12.32;;
84444;SDS011;74683;48.402;10.596;2024-01-10T05:34:18;27.42;;;11.38;;
84444;SDS011;74683;48.402;10.596;2024-01-10T05:36:45;27.83;;;10.20;;
84444;SDS011;74683;48.402;10.596;2024-01-10T05:39:11;25.70;;;10.40;;
84444;SDS011;74683;48.402;10.596;2024-01-10T05:41:42;28.48;;;12.73;;
84444;SDS011;74683;48.402;10.596;2024-01-10T05:44:12;22.35;;;9.20;;
84444;SDS011;74683;48.402;10.596;2024-01-10T05:46:39;32.65;;;12.63;;
84444;SDS011;74683;48.402;10.596;2024-01-10T05:49:06;32.63;;;12.32;;
84444;SDS011;74683;48.402;10.596;2024-01-10T05:51:33;39.70;;;13.95;;
84444;SDS011;74683;48.402;10.596;2024-01-10T05:54:00;37.05;;;13.52;;
84444;SDS011;74683;48.402;10.596;2024-01-10T05:56:26;25.70;;;10.85;;
84444;SDS011;74683;48.402;10.596;2024-01-10T05:58:54;36.30;;;12.45;;
84444;SDS011;74683;48.402;10.596;2024-01-10T06:01:20;18.77;;;10.02;;
84444;SDS011;74683;48.402;10.596;2024-01-10T06:03:47;31.10;;;10.82;;
84444;SDS011;74683;48.402;10.596;2024-01-10T06:06:14;27.48;;;10.48;;
84444;SDS011;74683;48.402;10.596;2024-01-10T06:08:41;37.92;;;13.55;;
84444;SDS011;74683;48.402;10.596;2024-01-10T06:11:07;31.20;;;10.52;;
84444;SDS011;74683;48.402;10.596;2024-01-10T06:13:36;26.30;;;10.00;;
84444;SDS011;74683;48.402;10.596;2024-01-10T06:16:18;28.98;;;11.07;;
84444;SDS011;74683;48.402;10.596;2024-01-10T06:18:45;28.83;;;13.00;;
84444;SDS011;74683;48.402;10.596;2024-01-10T06:21:12;27.50;;;12.23;;
84444;SDS011;74683;48.402;10.596;2024-01-10T06:23:38;39.22;;;12.13;;
84444;SDS011;74683;48.402;10.596;2024-01-10T06:26:05;28.83;;;10.75;;
84444;SDS011;74683;48.402;10.596;2024-01-10T06:28:32;31.00;;;14.18;;
84444;SDS011;74683;48.402;10.596;2024-01-10T06:30:58;40.58;;;12.77;;
84444;SDS011;74683;48.402;10.596;2024-01-10T06:33:25;29.10;;;12.55;;
84444;SDS011;74683;48.402;10.596;2024-01-10T06:35:52;34.33;;;14.00;;
84444;SDS011;74683;48.402;10.596;2024-01-10T06:38:19;32.40;;;13.07;;
84444;SDS011;74683;48.402;10.596;2024-01-10T06:40:47;35.60;;;14.93;;
84444;SDS011;74683;48.402;10.596;2024-01-10T06:43:14;31.60;;;12.30;;
84444;SDS011;74683;48.402;10.596;2024-01-10T06:45:42;34.88;;;13.13;;
84444;SDS011;74683;48.402;10.596;2024-01-10T06:48:10;29.92;;;12.55;;
84444;SDS011;74683;48.402;10.596;2024-01-10T06:50:37;39.90;;;14.25;;
84444;SDS011;74683;48.402;10.596;2024-01-10T06:53:04;34.38;;;12.32;;
84444;SDS011;74683;48.402;10.596;2024-01-10T06:55:31;30.13;;;12.32;;
84444;SDS011;74683;48.402;10.596;2024-01-10T06:57:58;41.95;;;14.05;;
84444;SDS011;74683;48.402;10.596;2024-01-10T07:00:24;37.63;;;13.45;;
84444;SDS011;74683;48.402;10.596;2024-01-10T07:02:51;39.42;;;14.43;;
84444;SDS011;74683;48.402;10.596;2024-01-10T07:05:18;31.02;;;12.13;;
84444;SDS011;74683;48.402;10.596;2024-01-10T07:07:46;32.47;;;12.50;;
84444;SDS011;74683;48.402;10.596;2024-01-10T07:10:12;32.85;;;14.73;;
84444;SDS011;74683;48.402;10.596;2024-01-10T07:12:39;37.50;;;15.27;;
84444;SDS011;74683;48.402;10.596;2024-01-10T07:15:05;35.72;;;16.02;;
84444;SDS011;74683;48.402;10.596;2024-01-10T07:17:33;29.80;;;12.57;;
84444;SDS011;74683;48.402;10.596;2024-01-10T07:19:59;42.03;;;14.38;;
84444;SDS011;74683;48.402;10.596;2024-01-10T07:22:26;35.42;;;13.85;;
84444;SDS011;74683;48.402;10.596;2024-01-10T07:24:53;31.08;;;13.10;;
84444;SDS011;74683;48.402;10.596;2024-01-10T07:27:21;35.22;;;13.63;;
84444;SDS011;74683;48.402;10.596;2024-01-10T07:29:48;34.72;;;13.38;;
84444;SDS011;74683;48.402;10.596;2024-01-10T07:32:14;37.70;;;11.85;;
84444;SDS011;74683;48.402;10.596;2024-01-10T07:34:41;35.72;;;14.00;;
84444;SDS011;74683;48.402;10.596;2024-01-10T07:37:08;43.63;;;13.98;;
84444;SDS011;74683;48.402;10.596;2024-01-10T07:39:35;32.85;;;10.82;;
84444;SDS011;74683;48.402;10.596;2024-01-10T07:42:02;41.70;;;13.75;;
84444;SDS011;74683;48.402;10.596;2024-01-10T07:44:29;34.53;;;13.35;;
84444;SDS011;74683;48.402;10.596;2024-01-10T07:46:56;35.97;;;14.07;;
84444;SDS011;74683;48.402;10.596;2024-01-10T07:49:22;36.20;;;12.95;;
84444;SDS011;74683;48.402;10.596;2024-01-10T07:51:50;47.55;;;15.25;;
84444;SDS011;74683;48.402;10.596;2024-01-10T07:54:17;44.15;;;13.35;;
84444;SDS011;74683;48.402;10.596;2024-01-10T07:56:44;36.88;;;14.93;;
84444;SDS011;74683;48.402;10.596;2024-01-10T07:59:11;41.63;;;15.35;;
84444;SDS011;74683;48.402;10.596;2024-01-10T08:01:53;46.78;;;12.85;;
84444;SDS011;74683;48.402;10.596;2024-01-10T08:04:23;32.78;;;13.30;;
84444;SDS011;74683;48.402;10.596;2024-01-10T08:06:53;33.70;;;13.90;;
84444;SDS011;74683;48.402;10.596;2024-01-10T08:11:52;42.08;;;13.10;;
84444;SDS011;74683;48.402;10.596;2024-01-10T08:14:19;31.88;;;12.32;;
84444;SDS011;74683;48.402;10.596;2024-01-10T08:16:46;28.13;;;11.77;;
84444;SDS011;74683;48.402;10.596;2024-01-10T08:19:14;29.25;;;12.90;;
84444;SDS011;74683;48.402;10.596;2024-01-10T08:21:41;48.97;;;15.68;;
84444;SDS011;74683;48.402;10.596;2024-01-10T08:24:08;38.58;;;13.95;;
84444;SDS011;74683;48.402;10.596;2024-01-10T08:26:34;37.30;;;13.52;;
84444;SDS011;74683;48.402;10.596;2024-01-10T08:29:01;37.28;;;14.40;;
84444;SDS011;74683;48.402;10.596;2024-01-10T08:31:28;39.08;;;14.15;;
84444;SDS011;74683;48.402;10.596;2024-01-10T08:33:55;39.35;;;13.85;;
84444;SDS011;74683;48.402;10.596;2024-01-10T08:36:23;38.80;;;13.15;;
84444;SDS011;74683;48.402;10.596;2024-01-10T08:38:50;34.63;;;13.88;;
84444;SDS011;74683;48.402;10.596;2024-01-10T08:41:18;39.70;;;14.13;;
84444;SDS011;74683;48.402;10.596;2024-01-10T08:43:46;53.40;;;16.80;;
84444;SDS011;74683;48.402;10.596;2024-01-10T08:46:13;41.15;;;12.95;;
84444;SDS011;74683;48.402;10.596;2024-01-10T08:48:40;34.78;;;13.93;;
84444;SDS011;74683;48.402;10.596;2024-01-10T08:51:07;36.95;;;13.02;;
84444;SDS011;74683;48.402;10.596;2024-01-10T08:53:35;39.33;;;15.70;;
84444;SDS011;74683;48.402;10.596;2024-01-10T08:56:02;38.78;;;14.88;;
84444;SDS011;74683;48.402;10.596;2024-01-10T08:58:29;40.00;;;14.55;;
84444;SDS011;74683;48.402;10.596;2024-01-10T09:00:55;43.97;;;16.10;;
84444;SDS011;74683;48.402;10.596;2024-01-10T09:03:22;40.53;;;14.07;;
84444;SDS011;74683;48.402;10.596;2024-01-10T09:05:48;40.40;;;14.35;;
84444;SDS011;74683;48.402;10.596;2024-01-10T09:08:30;44.20;;;15.95;;
84444;SDS011;74683;48.402;10.596;2024-01-10T09:10:57;38.83;;;14.00;;
84444;SDS011;74683;48.402;10.596;2024-01-10T09:13:23;43.33;;;14.80;;
84444;SDS011;74683;48.402;10.596;2024-01-10T09:15:50;44.28;;;14.52;;
84444;SDS011;74683;48.402;10.596;2024-01-10T09:18:17;39.22;;;15.55;;
84444;SDS011;74683;48.402;10.596;2024-01-10T09:20:44;35.95;;;12.82;;
84444;SDS011;74683;48.402;10.596;2024-01-10T09:23:10;37.97;;;14.18;;
84444;SDS011;74683;48.402;10.596;2024-01-10T09:25:37;36.70;;;14.60;;
84444;SDS011;74683;48.402;10.596;2024-01-10T09:28:04;38.97;;;14.85;;
84444;SDS011;74683;48.402;10.596;2024-01-10T09:30:30;40.20;;;14.25;;
84444;SDS011;74683;48.402;10.596;2024-01-10T09:32:57;37.65;;;14.55;;
84444;SDS011;74683;48.402;10.596;2024-01-10T09:35:25;38.75;;;14.13;;
84444;SDS011;74683;48.402;10.596;2024-01-10T09:37:52;35.80;;;13.52;;
84444;SDS011;74683;48.402;10.596;2024-01-10T09:40:20;45.42;;;15.35;;
84444;SDS011;74683;48.402;10.596;2024-01-10T09:42:54;41.33;;;16.15;;
84444;SDS011;74683;48.402;10.596;2024-01-10T09:45:21;39.28;;;15.18;;
84444;SDS011;74683;48.402;10.596;2024-01-10T09:47:55;39.33;;;14.57;;
84444;SDS011;74683;48.402;10.596;2024-01-10T09:50:23;47.53;;;15.82;;
84444;SDS011;74683;48.402;10.596;2024-01-10T09:52:52;40.17;;;14.55;;
84444;SDS011;74683;48.402;10.596;2024-01-10T09:55:25;45.42;;;16.35;;
84444;SDS011;74683;48.402;10.596;2024-01-10T09:57:55;44.72;;;16.05;;
84444;SDS011;74683;48.402;10.596;2024-01-10T10:00:21;38.55;;;14.38;;
84444;SDS011;74683;48.402;10.596;2024-01-10T10:02:50;47.00;;;15.50;;
84444;SDS011;74683;48.402;10.596;2024-01-10T10:05:18;39.67;;;14.85;;
84444;SDS011;74683;48.402;10.596;2024-01-10T10:07:48;33.60;;;14.27;;
84444;SDS011;74683;48.402;10.596;2024-01-10T10:10:21;43.25;;;14.73;;
84444;SDS011;74683;48.402;10.596;2024-01-10T10:12:48;33.40;;;13.90;;
84444;SDS011;74683;48.402;10.596;2024-01-10T10:15:19;40.58;;;14.27;;
84444;SDS011;74683;48.402;10.596;2024-01-10T10:17:49;42.35;;;14.60;;
84444;SDS011;74683;48.402;10.596;2024-01-10T10:20:20;35.92;;;13.45;;
84444;SDS011;74683;48.402;10.596;2024-01-10T10:22:57;47.08;;;16.83;;
84444;SDS011;74683;48.402;10.596;2024-01-10T10:25:29;44.88;;;14.68;;
84444;SDS011;74683;48.402;10.596;2024-01-10T10:27:57;40.70;;;14.00;;
84444;SDS011;74683;48.402;10.596;2024-01-10T10:30:24;39.13;;;14.00;;
84444;SDS011;74683;48.402;10.596;2024-01-10T10:32:51;40.70;;;13.93;;
84444;SDS011;74683;48.402;10.596;2024-01-10T10:35:20;45.17;;;16.67;;
84444;SDS011;74683;48.402;10.596;2024-01-10T10:38:02;37.22;;;13.75;;
84444;SDS011;74683;48.402;10.596;2024-01-10T10:40:29;38.90;;;14.27;;
84444;SDS011;74683;48.402;10.596;2024-01-10T10:42:56;43.97;;;15.45;;
84444;SDS011;74683;48.402;10.596;2024-01-10T10:45:23;41.35;;;13.63;;
84444;SDS011;74683;48.402;10.596;2024-01-10T10:47:58;39.17;;;14.45;;
84444;SDS011;74683;48.402;10.596;2024-01-10T10:50:33;43.58;;;16.60;;
84444;SDS011;74683;48.402;10.596;2024-01-10T10:53:03;37.13;;;14.45;;
84444;SDS011;74683;48.402;10.596;2024-01-10T10:55:30;45.65;;;17.65;;
84444;SDS011;74683;48.402;10.596;2024-01-10T10:57:59;45.75;;;15.07;;
84444;SDS011;74683;48.402;10.596;2024-01-10T11:00:36;32.83;;;12.82;;
84444;SDS011;74683;48.402;10.596;2024-01-10T11:03:04;41.38;;;14.43;;
84444;SDS011;74683;48.402;10.596;2024-01-10T11:05:31;53.03;;;20.08;;
84444;SDS011;74683;48.402;10.596;2024-01-10T11:07:59;43.22;;;15.98;;
84444;SDS011;74683;48.402;10.596;2024-01-10T11:10:31;41.05;;;15.68;;
84444;SDS011;74683;48.402;10.596;2024-01-10T11:13:09;41.08;;;15.23;;
84444;SDS011;74683;48.402;10.596;2024-01-10T11:16:07;29.17;;;12.95;;
84444;SDS011;74683;48.402;10.596;2024-01-10T11:21:50;36.42;;;14.45;;
84444;SDS011;74683;48.402;10.596;2024-01-10T11:24:33;30.70;;;13.77;;
84444;SDS011;74683;48.402;10.596;2024-01-10T11:27:06;40.63;;;15.25;;
84444;SDS011;74683;48.402;10.596;2024-01-10T11:29:37;47.97;;;16.00;;
84444;SDS011;74683;48.402;10.596;2024-01-10T11:32:15;43.80;;;15.80;;
84444;SDS011;74683;48.402;10.596;2024-01-10T11:37:45;47.70;;;16.85;;
84444;SDS011;74683;48.402;10.596;2024-01-10T11:40:14;30.30;;;12.27;;
84444;SDS011;74683;48.402;10.596;2024-01-10T11:42:43;39.60;;;16.60;;
84444;SDS011;74683;48.402;10.596;2024-01-10T11:45:35;37.92;;;16.77;;
84444;SDS011;74683;48.402;10.596;2024-01-10T11:48:02;38.75;;;14.05;;
84444;SDS011;74683;48.402;10.596;2024-01-10T11:50:29;44.65;;;15.60;;
84444;SDS011;74683;48.402;10.596;2024-01-10T11:52:59;41.63;;;15.80;;
84444;SDS011;74683;48.402;10.596;2024-01-10T11:58:18;41.63;;;15.52;;
84444;SDS011;74683;48.402;10.596;2024-01-10T12:00:45;42.67;;;15.50;;
84444;SDS011;74683;48.402;10.596;2024-01-10T12:03:12;37.28;;;15.32;;
84444;SDS011;74683;48.402;10.596;2024-01-10T12:05:40;37.55;;;15.02;;
84444;SDS011;74683;48.402;10.596;2024-01-10T12:08:08;42.13;;;16.00;;
84444;SDS011;74683;48.402;10.596;2024-01-10T12:10:35;42.83;;;16.27;;
84444;SDS011;74683;48.402;10.596;2024-01-10T12:13:03;40.30;;;15.75;;
84444;SDS011;74683;48.402;10.596;2024-01-10T12:15:30;37.40;;;13.88;;
84444;SDS011;74683;48.402;10.596;2024-01-10T12:17:56;35.08;;;15.63;;
84444;SDS011;74683;48.402;10.596;2024-01-10T12:20:23;40.47;;;15.63;;
84444;SDS011;74683;48.402;10.596;2024-01-10T12:22:50;40.08;;;15.18;;
84444;SDS011;74683;48.402;10.596;2024-01-10T12:25:17;35.00;;;14.25;;
84444;SDS011;74683;48.402;10.596;2024-01-10T12:27:45;45.45;;;15.57;;
84444;SDS011;74683;48.402;10.596;2024-01-10T12:30:11;41.22;;;15.65;;
84444;SDS011;74683;48.402;10.596;2024-01-10T12:32:38;35.58;;;15.23;;
84444;SDS011;74683;48.402;10.596;2024-01-10T12:35:05;37.90;;;15.68;;
84444;SDS011;74683;48.402;10.596;2024-01-10T12:37:32;42.58;;;15.60;;
84444;SDS011;74683;48.402;10.596;2024-01-10T12:39:59;35.67;;;14.68;;
84444;SDS011;74683;48.402;10.596;2024-01-10T12:42:26;41.28;;;16.02;;
84444;SDS011;74683;48.402;10.596;2024-01-10T12:44:52;40.28;;;14.82;;
84444;SDS011;74683;48.402;10.596;2024-01-10T12:47:20;40.45;;;15.93;;
84444;SDS011;74683;48.402;10.596;2024-01-10T12:49:48;38.70;;;15.35;;
84444;SDS011;74683;48.402;10.596;2024-01-10T12:52:15;40.60;;;15.88;;
84444;SDS011;74683;48.402;10.596;2024-01-10T12:54:46;41.53;;;16.23;;
84444;SDS011;74683;48.402;10.596;2024-01-10T12:57:13;40.53;;;15.07;;
84444;SDS011;74683;48.402;10.596;2024-01-10T12:59:39;44.08;;;15.93;;
84444;SDS011;74683;48.402;10.596;2024-01-10T13:02:06;42.72;;;16.80;;
84444;SDS011;74683;48.402;10.596;2024-01-10T13:04:33;38.00;;;14.10;;
84444;SDS011;74683;48.402;10.596;2024-01-10T13:06:59;44.78;;;17.88;;
84444;SDS011;74683;48.402;10.596;2024-01-10T13:09:26;46.15;;;17.23;;
84444;SDS011;74683;48.402;10.596;2024-01-10T13:11:54;37.92;;;14.38;;
84444;SDS011;74683;48.402;10.596;2024-01-10T13:14:20;41.15;;;14.52;;
84444;SDS011;74683;48.402;10.596;2024-01-10T13:16:47;37.05;;;13.48;;
84444;SDS011;74683;48.402;10.596;2024-01-10T13:19:25;24.58;;;11.30;;
84444;SDS011;74683;48.402;10.596;2024-01-10T13:21:53;37.75;;;15.10;;
84444;SDS011;74683;48.402;10.596;2024-01-10T13:24:20;58.17;;;25.27;;
84444;SDS011;74683;48.402;10.596;2024-01-10T13:26:46;37.05;;;14.20;;
84444;SDS011;74683;48.402;10.596;2024-01-10T13:29:14;76.40;;;32.67;;
84444;SDS011;74683;48.402;10.596;2024-01-10T13:31:42;33.38;;;13.13;;
84444;SDS011;74683;48.402;10.596;2024-01-10T13:34:10;32.05;;;11.75;;
84444;SDS011;74683;48.402;10.596;2024-01-10T13:36:38;31.50;;;12.93;;
84444;SDS011;74683;48.402;10.596;2024-01-10T13:39:04;33.45;;;13.23;;
84444;SDS011;74683;48.402;10.596;2024-01-10T13:41:31;37.72;;;15.50;;
84444;SDS011;74683;48.402;10.596;2024-01-10T13:43:58;33.65;;;13.73;;
84444;SDS011;74683;48.402;10.596;2024-01-10T13:46:25;35.67;;;13.82;;
84444;SDS011;74683;48.402;10.596;2024-01-10T13:48:51;33.15;;;12.88;;
84444;SDS011;74683;48.402;10.596;2024-01-10T13:51:18;34.78;;;12.55;;
84444;SDS011;74683;48.402;10.596;2024-01-10T13:53:45;40.20;;;15.80;;
84444;SDS011;74683;48.402;10.596;2024-01-10T13:56:11;35.70;;;14.98;;
84444;SDS011;74683;48.402;10.596;2024-01-10T13:58:38;42.88;;;16.95;;
84444;SDS011;74683;48.402;10.596;2024-01-10T14:01:05;46.10;;;16.73;;
84444;SDS011;74683;48.402;10.596;2024-01-10T14:03:32;38.55;;;14.48;;
84444;SDS011;74683;48.402;10.596;2024-01-10T14:05:59;39.35;;;13.52;;
84444;SDS011;74683;48.402;10.596;2024-01-10T14:08:27;44.90;;;16.52;;
84444;SDS011;74683;48.402;10.596;2024-01-10T14:10:54;40.00;;;15.32;;
84444;SDS011;74683;48.402;10.596;2024-01-10T14:13:20;42.83;;;16.63;;
84444;SDS011;74683;48.402;10.596;2024-01-10T14:18:16;38.72;;;13.98;;
84444;SDS011;74683;48.402;10.596;2024-01-10T14:20:42;35.88;;;12.88;;
84444;SDS011;74683;48.402;10.596;2024-01-10T14:23:10;39.85;;;15.18;;
84444;SDS011;74683;48.402;10.596;2024-01-10T14:25:36;46.40;;;15.50;;
84444;SDS011;74683;48.402;10.596;2024-01-10T14:28:03;39.15;;;15.55;;
84444;SDS011;74683;48.402;10.596;2024-01-10T14:30:30;39.40;;;17.15;;